< < Back
Terminal Aerodrome Forecast


Current Version              Previous Versions:   1  2  3  4  5  6  7  8  9  

Terminal Aerodrome Forecast

520
FTUS42 KJAX 271854 AAA
TAFGNV
TAF AMD
KGNV 271854Z 2719/2818 25010G18KT P6SM -RA SCT020 BKN040
     FM272100 28012KT P6SM VCSH SCT025 BKN050
     FM272300 30010KT P6SM SCT050
     FM280200 32008KT P6SM SKC
     FM281500 30011G22KT P6SM SCT250=



Latest METAR

577
SAUS70 KWBC 280400 RRB
MTRGNV
METAR KGNV 280353Z AUTO 27007KT 10SM CLR 11/07 A2999 RMK AO2 SLP153
T01060072


USA.gov is the U.S. government's official web portal to all federal, state and local government web resources and services.